Time;durP1;ratioP1;P1;durP2;ratioP2;P2;SDS_P1;SDS_P2;PMS_P1;PMS_P2;Temp;Humidity;BMP_temperature;BMP_pressure;BME280_temperature;BME280_humidity;BME280_pressure;Samples;Min_cycle;Max_cycle;Signal;HPM_P1;HPM_P2
2021/04/19 00:00:07;;;;;;;16.93;9.10;;;;;;;10.83;100.00;98313.69;5025393;28;20203;-69
2021/04/19 00:02:35;;;;;;;14.73;9.63;;;;;;;10.85;100.00;98313.50;5028222;28;20206;-69
2021/04/19 00:05:01;;;;;;;16.67;9.43;;;;;;;10.84;100.00;98314.50;5032226;28;20205;-70
2021/04/19 00:07:28;;;;;;;24.47;10.10;;;;;;;10.86;100.00;98310.63;5027982;28;20205;-69
2021/04/19 00:09:55;;;;;;;17.37;9.87;;;;;;;10.53;100.00;98314.91;5029500;28;20210;-69
2021/04/19 00:12:22;;;;;;;18.07;9.63;;;;;;;10.76;100.00;98318.16;5028811;28;20207;-70
2021/04/19 00:14:49;;;;;;;16.73;9.90;;;;;;;10.79;100.00;98315.09;5030238;28;20658;-69
2021/04/19 00:17:15;;;;;;;15.63;9.70;;;;;;;10.74;100.00;98317.53;5031109;28;20226;-70
2021/04/19 00:19:43;;;;;;;16.43;9.87;;;;;;;10.68;100.00;98315.63;5032836;28;20209;-70
2021/04/19 00:22:10;;;;;;;17.67;9.90;;;;;;;10.71;100.00;98312.56;5028089;28;20199;-70
2021/04/19 00:24:37;;;;;;;16.23;10.00;;;;;;;10.77;100.00;98313.66;5029453;28;20699;-70
2021/04/19 00:27:04;;;;;;;18.97;9.63;;;;;;;10.71;100.00;98307.22;5022523;28;20310;-68
2021/04/19 00:29:31;;;;;;;14.10;8.87;;;;;;;10.71;100.00;98312.56;5028008;28;20689;-71
2021/04/19 00:31:57;;;;;;;19.23;10.00;;;;;;;10.71;100.00;98315.22;5032250;28;20200;-70
2021/04/19 00:34:24;;;;;;;18.87;10.30;;;;;;;10.39;100.00;98310.47;5029654;28;20207;-68
2021/04/19 00:36:52;;;;;;;16.40;10.17;;;;;;;10.58;100.00;98309.81;5029484;28;20723;-68
2021/04/19 00:39:19;;;;;;;17.27;9.53;;;;;;;10.63;100.00;98303.88;5029498;28;20659;-70
2021/04/19 00:41:46;;;;;;;17.10;10.73;;;;;;;10.65;100.00;98307.19;5027114;28;20203;-70
2021/04/19 00:44:13;;;;;;;19.10;10.13;;;;;;;10.66;100.00;98296.31;5026430;28;20269;-70
2021/04/19 00:46:40;;;;;;;18.03;10.13;;;;;;;10.66;100.00;98292.84;5026922;28;20357;-70
2021/04/19 00:49:07;;;;;;;15.23;9.57;;;;;;;10.65;100.00;98296.53;5032664;28;20208;-70
2021/04/19 00:51:34;;;;;;;17.60;9.33;;;;;;;10.61;100.00;98300.59;5031941;28;20207;-70
2021/04/19 00:54:02;;;;;;;16.20;9.97;;;;;;;10.62;100.00;98294.22;5031955;28;20260;-70
2021/04/19 00:56:29;;;;;;;16.47;9.70;;;;;;;10.52;100.00;98293.75;5031305;28;20230;-70
2021/04/19 00:58:56;;;;;;;16.00;9.83;;;;;;;10.53;100.00;98295.38;5022516;28;20437;-70
2021/04/19 01:01:23;;;;;;;20.23;10.70;;;;;;;10.38;100.00;98288.50;5020999;28;20203;-70
2021/04/19 01:03:50;;;;;;;16.50;9.57;;;;;;;10.42;100.00;98285.25;5031648;28;20222;-68
2021/04/19 01:06:17;;;;;;;15.10;9.53;;;;;;;10.34;100.00;98282.69;5028324;28;20222;-68
2021/04/19 01:08:44;;;;;;;17.33;9.83;;;;;;;10.32;100.00;98288.25;5027535;28;20244;-70
2021/04/19 01:11:11;;;;;;;17.70;10.23;;;;;;;10.33;100.00;98292.56;5030972;28;20549;-68
2021/04/19 01:13:38;;;;;;;17.97;10.33;;;;;;;10.30;100.00;98286.78;5024914;28;20199;-68
2021/04/19 01:16:06;;;;;;;21.30;11.07;;;;;;;10.31;100.00;98283.91;5031591;28;20226;-69
2021/04/19 01:18:32;;;;;;;15.87;10.20;;;;;;;10.28;100.00;98286.97;5026209;28;20256;-69
2021/04/19 01:21:00;;;;;;;17.90;10.17;;;;;;;10.31;100.00;98283.09;5031207;28;20212;-69
2021/04/19 01:23:27;;;;;;;19.57;10.30;;;;;;;10.28;100.00;98284.31;5024907;28;20238;-69
2021/04/19 01:25:54;;;;;;;16.60;10.07;;;;;;;10.30;100.00;98284.94;5028242;28;20226;-68
2021/04/19 01:28:21;;;;;;;16.07;9.00;;;;;;;10.31;100.00;98283.91;5026574;28;20203;-69
2021/04/19 01:30:50;;;;;;;20.57;11.30;;;;;;;10.28;100.00;98286.16;5029292;28;20210;-69
2021/04/19 01:33:17;;;;;;;19.17;11.33;;;;;;;10.26;100.00;98278.34;5031023;28;20198;-68
2021/04/19 01:35:45;;;;;;;17.57;10.53;;;;;;;10.26;100.00;98282.84;5028748;28;20226;-69
2021/04/19 01:38:14;;;;;;;16.33;10.90;;;;;;;10.10;100.00;98280.47;5029381;28;20206;-69
2021/04/19 01:40:42;;;;;;;18.70;10.57;;;;;;;10.18;100.00;98281.16;5030657;28;20211;-68
2021/04/19 01:43:09;;;;;;;16.60;10.77;;;;;;;10.28;100.00;98273.66;5029689;28;20727;-69
2021/04/19 01:45:36;;;;;;;19.30;10.57;;;;;;;10.30;100.00;98284.13;5029233;28;20225;-69
2021/04/19 01:48:03;;;;;;;19.10;10.27;;;;;;;10.33;100.00;98287.22;5024743;28;20213;-69
2021/04/19 01:50:31;;;;;;;20.13;10.63;;;;;;;10.32;100.00;98282.94;5028263;28;20301;-69
2021/04/19 01:52:59;;;;;;;20.37;10.73;;;;;;;10.40;100.00;98281.97;5029115;28;20202;-69
2021/04/19 01:55:29;;;;;;;18.90;9.97;;;;;;;10.44;100.00;98269.84;5029979;28;20226;-69
2021/04/19 01:57:59;;;;;;;20.47;11.67;;;;;;;10.43;100.00;98270.88;5024877;28;20759;-69
2021/04/19 02:00:28;;;;;;;19.20;10.13;;;;;;;10.45;100.00;98268.88;5025916;28;20206;-69
2021/04/19 02:03:01;;;;;;;18.50;10.30;;;;;;;10.46;100.00;98273.19;5026948;28;20264;-68
2021/04/19 02:05:33;;;;;;;16.70;10.00;;;;;;;10.44;100.00;98272.53;5025722;28;20222;-68
2021/04/19 02:08:05;;;;;;;20.43;10.83;;;;;;;10.39;100.00;98270.44;5027459;28;20269;-68
2021/04/19 02:10:40;;;;;;;17.77;9.87;;;;;;;10.36;100.00;98265.50;5023248;28;20198;-70
2021/04/19 02:13:13;;;;;;;16.83;9.87;;;;;;;10.47;100.00;98261.47;5029146;28;20199;-68
2021/04/19 02:15:49;;;;;;;17.47;9.93;;;;;;;10.51;100.00;98260.88;5026438;28;20317;-68
2021/04/19 02:18:22;;;;;;;17.50;10.63;;;;;;;10.56;100.00;98263.78;5026673;28;20229;-68
2021/04/19 02:20:50;;;;;;;17.20;9.23;;;;;;;10.53;100.00;98260.69;5029912;28;20207;-68
2021/04/19 02:23:21;;;;;;;20.70;10.80;;;;;;;10.33;100.00;98260.56;5026092;28;20285;-68
2021/04/19 02:25:51;;;;;;;18.93;10.60;;;;;;;10.17;100.00;98257.34;5029431;28;20317;-68
2021/04/19 02:28:23;;;;;;;16.07;10.07;;;;;;;10.38;100.00;98262.63;5029310;28;20207;-68
2021/04/19 02:30:54;;;;;;;17.40;9.97;;;;;;;10.38;100.00;98256.50;5031189;28;20209;-68
2021/04/19 02:33:22;;;;;;;15.80;10.57;;;;;;;10.34;100.00;98253.34;5026669;28;20202;-68
2021/04/19 02:35:49;;;;;;;16.77;9.80;;;;;;;10.25;100.00;98263.34;5029210;28;20230;-68
2021/04/19 02:38:19;;;;;;;14.73;9.37;;;;;;;10.20;100.00;98264.97;5024448;28;20570;-69
2021/04/19 02:40:47;;;;;;;16.43;9.30;;;;;;;10.24;100.00;98263.56;5021859;28;20202;-68
2021/04/19 02:43:15;;;;;;;15.20;9.40;;;;;;;10.23;100.00;98260.06;5019009;28;20231;-68
2021/04/19 02:45:43;;;;;;;13.50;8.47;;;;;;;10.12;100.00;98258.94;5020207;28;20316;-68
2021/04/19 02:48:11;;;;;;;15.27;9.30;;;;;;;10.28;100.00;98262.97;5026464;28;20213;-68
2021/04/19 02:50:38;;;;;;;16.47;10.00;;;;;;;10.17;100.00;98254.66;5017946;28;20244;-68
2021/04/19 02:53:06;;;;;;;17.50;9.97;;;;;;;10.33;100.00;98257.88;5028023;28;20206;-68
2021/04/19 02:55:33;;;;;;;17.60;9.47;;;;;;;10.40;100.00;98261.44;5022752;28;21030;-68
2021/04/19 02:58:03;;;;;;;17.50;10.07;;;;;;;10.44;100.00;98272.53;5025248;28;20206;-68
2021/04/19 03:00:34;;;;;;;20.63;10.43;;;;;;;10.28;100.00;98264.81;5026508;28;20213;-68
2021/04/19 03:03:05;;;;;;;17.67;9.70;;;;;;;10.43;100.00;98266.38;5021432;28;20249;-68
2021/04/19 03:05:32;;;;;;;16.00;9.47;;;;;;;10.50;100.00;98259.25;5029388;28;20248;-68
2021/04/19 03:08:01;;;;;;;16.10;9.60;;;;;;;10.54;100.00;98260.50;5022178;28;20207;-68
2021/04/19 03:10:31;;;;;;;19.70;10.13;;;;;;;10.58;100.00;98263.59;5029670;28;20257;-68
2021/04/19 03:13:00;;;;;;;16.97;10.03;;;;;;;10.61;100.00;98253.34;5019040;28;20210;-68
2021/04/19 03:15:29;;;;;;;18.97;9.60;;;;;;;10.64;100.00;98257.47;5025993;28;20222;-68
2021/04/19 03:17:57;;;;;;;16.20;9.60;;;;;;;10.54;100.00;98257.84;5030027;28;20645;-68
2021/04/19 03:20:27;;;;;;;18.67;9.90;;;;;;;10.68;100.00;98255.28;5024804;28;20237;-68
2021/04/19 03:22:55;;;;;;;18.30;9.87;;;;;;;10.63;100.00;98258.50;5019516;28;20237;-68
2021/04/19 03:25:24;;;;;;;17.30;9.40;;;;;;;10.53;100.00;98256.19;5031991;28;20226;-68
2021/04/19 03:27:54;;;;;;;16.73;9.47;;;;;;;10.61;100.00;98256.03;5031090;28;20318;-68
2021/04/19 03:30:23;;;;;;;18.67;9.40;;;;;;;10.66;100.00;98250.94;5034534;28;20659;-69
2021/04/19 03:32:52;;;;;;;19.73;10.50;;;;;;;10.68;100.00;98256.09;5025250;28;20210;-68
2021/04/19 03:35:23;;;;;;;17.43;9.87;;;;;;;10.68;100.00;98252.59;5031030;28;20218;-68
2021/04/19 03:37:50;;;;;;;14.63;9.40;;;;;;;10.70;100.00;98252.19;5029543;28;20210;-70
2021/04/19 03:40:22;;;;;;;15.67;9.13;;;;;;;10.73;100.00;98250.19;5020284;28;20203;-68
2021/04/19 03:42:52;;;;;;;18.37;10.97;;;;;;;10.30;100.00;98252.94;5025289;28;20198;-69
2021/04/19 03:45:19;;;;;;;18.10;10.20;;;;;;;10.31;100.00;98243.09;5022849;28;20229;-69
2021/04/19 03:47:49;;;;;;;20.70;10.83;;;;;;;10.36;100.00;98241.47;5023481;28;20216;-68
2021/04/19 03:50:17;;;;;;;19.83;11.23;;;;;;;10.32;100.00;98245.56;5022979;28;20226;-68
2021/04/19 03:52:49;;;;;;;19.90;11.80;;;;;;;10.31;100.00;98241.22;5021384;28;20723;-68
2021/04/19 03:55:16;;;;;;;22.30;11.73;;;;;;;10.31;100.00;98240.44;5024154;28;20207;-69
2021/04/19 03:57:45;;;;;;;19.30;11.93;;;;;;;10.65;100.00;98240.47;5032273;28;20821;-68
2021/04/19 04:00:14;;;;;;;21.77;11.90;;;;;;;10.71;100.00;98242.34;5030713;28;20213;-69
2021/04/19 04:02:44;;;;;;;20.37;12.03;;;;;;;10.35;100.00;98242.50;5032697;28;20252;-69
2021/04/19 04:05:13;;;;;;;22.93;12.27;;;;;;;10.26;100.00;98235.66;5024824;28;20233;-69
2021/04/19 04:07:40;;;;;;;20.00;12.17;;;;;;;10.18;100.00;98239.50;5030092;28;20206;-69
2021/04/19 04:10:09;;;;;;;19.30;12.20;;;;;;;10.18;100.00;98238.47;5029314;28;20202;-69
2021/04/19 04:12:37;;;;;;;21.63;12.80;;;;;;;10.48;100.00;98235.63;5031612;28;20208;-69
2021/04/19 04:15:05;;;;;;;19.53;11.93;;;;;;;10.23;100.00;98234.41;5027698;28;20195;-69
2021/04/19 04:17:31;;;;;;;22.67;12.37;;;;;;;10.38;100.00;98234.13;5031076;28;20214;-69
2021/04/19 04:19:58;;;;;;;23.00;12.27;;;;;;;10.65;100.00;98235.94;5030959;28;20225;-69
2021/04/19 04:22:26;;;;;;;25.77;13.70;;;;;;;10.23;100.00;98237.09;5031681;28;20643;-69
2021/04/19 04:24:53;;;;;;;23.00;13.03;;;;;;;10.52;100.00;98240.38;5030128;28;20234;-69
2021/04/19 04:27:20;;;;;;;24.80;13.00;;;;;;;10.71;100.00;98237.81;5032763;28;20226;-69
2021/04/19 04:29:47;;;;;;;22.60;12.87;;;;;;;10.55;100.00;98234.66;5023612;28;20207;-69
2021/04/19 04:32:14;;;;;;;24.63;13.13;;;;;;;10.55;100.00;98240.00;5029257;28;20207;-70
2021/04/19 04:34:41;;;;;;;22.90;14.07;;;;;;;10.73;100.00;98236.84;5025627;28;20199;-69
2021/04/19 04:37:08;;;;;;;22.77;12.37;;;;;;;10.45;100.00;98245.66;5032424;28;20254;-69
2021/04/19 04:39:35;;;;;;;22.57;12.43;;;;;;;10.51;100.00;98244.06;5023997;28;20211;-69
2021/04/19 04:42:04;;;;;;;24.00;13.10;;;;;;;10.76;100.00;98240.72;5032201;28;20828;-68
2021/04/19 04:44:34;;;;;;;21.43;13.30;;;;;;;10.91;100.00;98241.44;5031403;28;20225;-71
2021/04/19 04:47:08;;;;;;;25.83;13.00;;;;;;;10.86;100.00;98238.53;5031185;28;20368;-71
2021/04/19 04:49:41;;;;;;;20.17;11.23;;;;;;;10.98;100.00;98241.47;5031601;28;20608;-71
2021/04/19 04:52:08;;;;;;;20.00;12.83;;;;;;;11.01;100.00;98241.91;5030120;28;20210;-68
2021/04/19 04:54:38;;;;;;;20.00;13.00;;;;;;;11.03;100.00;98241.72;5028870;28;20257;-71
2021/04/19 04:57:06;;;;;;;21.40;13.00;;;;;;;11.03;100.00;98247.88;5032105;28;20229;-71
2021/04/19 04:59:33;;;;;;;20.83;12.47;;;;;;;10.95;100.00;98253.38;5023817;28;20257;-68
2021/04/19 05:02:00;;;;;;;23.00;13.23;;;;;;;10.68;100.00;98248.06;5027578;28;20210;-68
2021/04/19 05:04:29;;;;;;;24.50;13.27;;;;;;;10.53;100.00;98247.34;5029698;28;20251;-69
2021/04/19 05:06:56;;;;;;;27.63;13.07;;;;;;;10.65;100.00;98253.81;5029092;28;20265;-69
2021/04/19 05:09:22;;;;;;;24.43;12.93;;;;;;;10.43;100.00;98243.41;5023097;28;20203;-69
2021/04/19 05:11:50;;;;;;;24.03;14.40;;;;;;;10.40;100.00;98252.63;5027546;28;20213;-71
2021/04/19 05:14:17;;;;;;;27.23;15.17;;;;;;;10.46;100.00;98249.97;5024175;28;20202;-70
2021/04/19 05:16:45;;;;;;;23.83;14.03;;;;;;;10.56;100.00;98252.31;5025302;28;20313;-70
2021/04/19 05:19:12;;;;;;;25.17;14.33;;;;;;;10.59;100.00;98250.06;5019068;28;20207;-69
2021/04/19 05:21:39;;;;;;;32.60;15.20;;;;;;;10.41;100.00;98247.06;5025522;28;20729;-70
2021/04/19 05:24:06;;;;;;;24.90;15.03;;;;;;;10.47;100.00;98256.16;5027497;28;20273;-71
2021/04/19 05:26:33;;;;;;;26.63;14.97;;;;;;;10.45;100.00;98250.19;5024594;28;20231;-73
2021/04/19 05:29:01;;;;;;;29.30;16.03;;;;;;;10.37;100.00;98255.66;5030022;28;20694;-71
2021/04/19 05:31:28;;;;;;;31.93;15.97;;;;;;;10.34;100.00;98259.53;5028566;28;20209;-74
2021/04/19 05:33:55;;;;;;;26.03;14.20;;;;;;;10.35;100.00;98258.50;5026405;28;20218;-74
2021/04/19 05:36:24;;;;;;;30.83;17.47;;;;;;;10.38;100.00;98259.16;5019203;28;20237;-68
2021/04/19 05:38:52;;;;;;;31.13;18.35;;;;;;;10.39;100.00;98256.28;5027950;28;20453;-71
2021/04/19 05:41:19;;;;;;;26.60;16.77;;;;;;;10.33;100.00;98265.91;5028042;28;20953;-68
2021/04/19 05:43:46;;;;;;;29.90;16.53;;;;;;;10.33;100.00;98260.56;5026691;28;20239;-73
2021/04/19 05:46:14;;;;;;;27.83;16.40;;;;;;;10.41;100.00;98259.59;5030473;28;20233;-68
2021/04/19 05:48:42;;;;;;;31.10;17.20;;;;;;;10.46;100.00;98257.16;5019550;28;20654;-69
2021/04/19 05:51:13;;;;;;;31.73;17.53;;;;;;;10.52;100.00;98262.56;5028691;28;20213;-70
2021/04/19 05:53:40;;;;;;;30.53;16.90;;;;;;;10.30;100.00;98268.13;5027969;28;20203;-69
2021/04/19 05:56:13;;;;;;;30.70;17.30;;;;;;;10.43;100.00;98271.72;5028464;28;20230;-70
2021/04/19 05:58:48;;;;;;;33.77;17.90;;;;;;;10.39;100.00;98264.28;5025130;28;20206;-70
2021/04/19 06:01:20;;;;;;;32.50;17.90;;;;;;;10.32;100.00;98274.91;5025497;28;20686;-75
2021/04/19 06:03:51;;;;;;;30.77;16.97;;;;;;;10.45;100.00;98279.53;5023843;28;20228;-70
2021/04/19 06:06:27;;;;;;;31.17;17.63;;;;;;;10.48;100.00;98279.13;5027143;28;20228;-71
2021/04/19 06:09:00;;;;;;;29.37;16.73;;;;;;;10.47;100.00;98282.81;5028987;28;20214;-70
2021/04/19 06:11:29;;;;;;;32.70;18.20;;;;;;;10.53;100.00;98282.03;5028675;28;20202;-71
2021/04/19 06:13:57;;;;;;;31.67;16.37;;;;;;;10.18;100.00;98279.50;5026996;28;20218;-70
2021/04/19 06:16:26;;;;;;;29.67;17.50;;;;;;;10.23;100.00;98280.56;5029566;28;20272;-71
2021/04/19 06:18:54;;;;;;;31.30;16.23;;;;;;;10.19;100.00;98288.13;5022642;28;20214;-71
2021/04/19 06:21:21;;;;;;;28.30;15.83;;;;;;;10.15;100.00;98283.38;5025875;28;20575;-71
2021/04/19 06:23:48;;;;;;;31.33;17.50;;;;;;;10.13;100.00;98282.72;5027275;28;20275;-68
2021/04/19 06:26:15;;;;;;;32.73;16.77;;;;;;;10.10;100.00;98291.94;5026992;28;20237;-68
2021/04/19 06:28:42;;;;;;;36.13;17.23;;;;;;;10.15;100.00;98280.72;5025634;28;20314;-70
2021/04/19 06:31:09;;;;;;;34.17;16.77;;;;;;;10.19;100.00;98284.66;5027323;28;20204;-68
2021/04/19 06:33:37;;;;;;;31.83;17.03;;;;;;;10.19;100.00;98280.13;5028391;28;20580;-66
2021/04/19 06:36:04;;;;;;;31.73;17.13;;;;;;;10.28;100.00;98286.97;5025870;28;20234;-66
2021/04/19 06:38:31;;;;;;;34.23;18.27;;;;;;;10.27;100.00;98282.69;5027164;28;20790;-68
2021/04/19 06:40:58;;;;;;;35.13;18.27;;;;;;;10.38;100.00;98289.31;5022154;28;20612;-68
2021/04/19 06:43:27;;;;;;;31.93;18.07;;;;;;;10.46;100.00;98290.00;5025071;28;20202;-68
2021/04/19 06:45:54;;;;;;;32.90;17.10;;;;;;;10.41;100.00;98284.41;5024538;28;20234;-66
2021/04/19 06:48:21;;;;;;;35.10;18.57;;;;;;;10.28;100.00;98288.81;5024992;28;20276;-68
2021/04/19 06:50:49;;;;;;;29.97;17.63;;;;;;;9.97;100.00;98297.13;5018472;28;20213;-68
2021/04/19 06:53:16;;;;;;;31.50;17.70;;;;;;;10.15;100.00;98294.03;5028509;28;20212;-68
2021/04/19 06:55:43;;;;;;;33.17;18.60;;;;;;;10.15;100.00;98286.03;5023174;28;20236;-68
2021/04/19 06:58:12;;;;;;;32.13;17.67;;;;;;;9.47;100.00;98291.84;5028186;28;20565;-68
2021/04/19 07:00:39;;;;;;;26.43;16.07;;;;;;;9.87;100.00;98291.28;5024195;28;20215;-68
2021/04/19 07:03:07;;;;;;;34.23;17.43;;;;;;;10.05;100.00;98293.53;5026642;28;20206;-68
2021/04/19 07:05:35;;;;;;;29.07;16.90;;;;;;;10.15;100.00;98291.38;5020125;28;20222;-68
2021/04/19 07:08:07;;;;;;;34.03;17.03;;;;;;;10.22;100.00;98297.59;5026147;28;20575;-68
2021/04/19 07:10:34;;;;;;;32.77;17.23;;;;;;;10.25;100.00;98297.22;5023718;28;20218;-68
2021/04/19 07:13:07;;;;;;;31.73;17.20;;;;;;;10.14;100.00;98295.88;5025587;28;20221;-68
2021/04/19 07:15:36;;;;;;;30.03;15.93;;;;;;;10.04;100.00;98300.69;5021987;28;20230;-69
2021/04/19 07:18:05;;;;;;;29.23;16.43;;;;;;;9.42;100.00;98304.91;5027233;28;20945;-68
2021/04/19 07:20:32;;;;;;;28.70;16.10;;;;;;;9.89;100.00;98299.91;5021344;28;20265;-68
2021/04/19 07:23:00;;;;;;;32.33;16.57;;;;;;;9.83;100.00;98306.00;5028576;28;20289;-68
2021/04/19 07:25:28;;;;;;;33.27;17.17;;;;;;;9.66;100.00;98304.59;5025060;28;20615;-68
2021/04/19 07:27:56;;;;;;;30.00;17.07;;;;;;;9.39;100.00;98305.25;5028231;28;20203;-68
2021/04/19 07:30:23;;;;;;;29.23;16.97;;;;;;;9.55;100.00;98310.38;5029710;28;20228;-68
2021/04/19 07:32:50;;;;;;;27.50;15.87;;;;;;;9.71;100.00;98299.53;5031129;28;20567;-68
2021/04/19 07:35:25;;;;;;;32.00;17.20;;;;;;;9.37;100.00;98301.97;5030645;28;20233;-68
2021/04/19 07:37:56;;;;;;;31.40;16.17;;;;;;;9.55;100.00;98298.91;5029708;28;20216;-68
2021/04/19 07:40:35;;;;;;;28.07;16.20;;;;;;;9.44;100.00;98296.72;5028204;28;20710;-68
2021/04/19 07:43:12;;;;;;;31.23;16.47;;;;;;;9.89;100.00;98297.22;5026182;28;20694;-68
2021/04/19 07:45:41;;;;;;;30.57;16.50;;;;;;;9.80;100.00;98292.22;5027757;28;20316;-68
2021/04/19 07:48:29;;;;;;;27.40;16.13;;;;;;;9.61;100.00;98287.50;5026126;28;20260;-70
2021/04/19 07:50:56;;;;;;;33.43;17.53;;;;;;;9.97;100.00;98291.78;5030009;28;20605;-68
2021/04/19 07:53:23;;;;;;;34.23;17.10;;;;;;;10.07;100.00;98288.03;5030991;28;20213;-71
2021/04/19 07:55:52;;;;;;;29.70;16.07;;;;;;;10.32;100.00;98284.75;5029569;28;20232;-68
2021/04/19 07:58:22;;;;;;;28.10;15.33;;;;;;;10.31;100.00;98289.25;5028116;28;20224;-68
2021/04/19 08:00:49;;;;;;;34.00;16.83;;;;;;;10.25;100.00;98291.88;5026400;28;20218;-68
2021/04/19 08:03:17;;;;;;;28.17;14.80;;;;;;;10.26;100.00;98290.88;5030025;28;20206;-68
2021/04/19 08:05:47;;;;;;;29.97;16.03;;;;;;;10.51;100.00;98281.44;5030395;28;20230;-68
2021/04/19 08:08:15;;;;;;;25.90;15.27;;;;;;;10.61;100.00;98295.25;5030348;28;20210;-68
2021/04/19 08:10:43;;;;;;;25.57;15.30;;;;;;;10.56;100.00;98290.47;5030513;28;20214;-69
2021/04/19 08:13:12;;;;;;;23.33;15.10;;;;;;;10.39;100.00;98289.13;5030591;28;20264;-68
2021/04/19 08:15:41;;;;;;;26.93;15.77;;;;;;;10.55;100.00;98288.03;5029544;28;20226;-68
2021/04/19 08:18:10;;;;;;;28.00;14.97;;;;;;;10.36;100.00;98286.84;5031238;28;20202;-67
2021/04/19 08:20:46;;;;;;;27.90;15.50;;;;;;;10.44;100.00;98288.53;5030097;28;20213;-68
2021/04/19 08:23:14;;;;;;;24.30;14.17;;;;;;;10.29;100.00;98285.13;5030711;28;20198;-68
2021/04/19 08:25:46;;;;;;;26.97;14.63;;;;;;;10.50;100.00;98282.44;5027068;28;20236;-68
2021/04/19 08:28:15;;;;;;;25.37;15.20;;;;;;;10.73;100.00;98295.56;5029863;28;20210;-68
2021/04/19 08:30:43;;;;;;;28.57;14.17;;;;;;;10.41;100.00;98286.28;5028145;28;20210;-68
2021/04/19 08:33:11;;;;;;;26.90;15.97;;;;;;;9.84;100.00;98285.50;5026459;28;20211;-69
2021/04/19 08:35:39;;;;;;;28.70;15.17;;;;;;;10.12;100.00;98282.94;5029915;28;20218;-67
2021/04/19 08:38:06;;;;;;;28.63;15.60;;;;;;;10.10;100.00;98291.13;5027230;28;20224;-68
2021/04/19 08:40:35;;;;;;;29.13;15.13;;;;;;;9.84;100.00;98291.66;5025587;28;20206;-68
2021/04/19 08:43:03;;;;;;;29.27;14.87;;;;;;;10.00;100.00;98290.59;5030523;28;20202;-68
2021/04/19 08:45:31;;;;;;;30.37;15.17;;;;;;;10.08;100.00;98291.31;5027308;28;20610;-68
2021/04/19 08:47:58;;;;;;;22.03;13.60;;;;;;;9.59;100.00;98297.53;5026148;28;20203;-67
2021/04/19 08:50:26;;;;;;;27.77;15.60;;;;;;;9.56;100.00;98292.56;5029754;28;20693;-69
2021/04/19 08:52:54;;;;;;;25.33;14.63;;;;;;;9.54;100.00;98297.25;5027770;28;20210;-68
2021/04/19 08:55:23;;;;;;;26.57;16.07;;;;;;;9.59;100.00;98298.34;5026847;28;20750;-68
2021/04/19 08:57:52;;;;;;;23.30;14.97;;;;;;;10.07;100.00;98303.00;5028300;28;20226;-68
2021/04/19 09:00:23;;;;;;;26.50;14.50;;;;;;;9.96;100.00;98306.16;5028476;28;20221;-67
2021/04/19 09:02:50;;;;;;;25.63;15.77;;;;;;;9.95;100.00;98307.13;5025797;28;20202;-67
2021/04/19 09:05:19;;;;;;;27.03;14.90;;;;;;;10.20;100.00;98305.78;5029101;28;20230;-68
2021/04/19 09:07:48;;;;;;;26.60;15.57;;;;;;;9.87;100.00;98306.44;5028231;28;20678;-68
2021/04/19 09:10:17;;;;;;;31.43;15.20;;;;;;;9.50;100.00;98311.97;5024633;28;20753;-67
2021/04/19 09:12:44;;;;;;;24.80;14.47;;;;;;;9.78;100.00;98305.72;5038700;28;20205;-68
2021/04/19 09:15:19;;;;;;;24.03;14.43;;;;;;;9.51;100.00;98310.94;5048656;28;20226;-68
2021/04/19 09:18:02;;;;;;;24.53;14.90;;;;;;;9.93;100.00;98303.00;5039920;28;20210;-68
2021/04/19 09:20:45;;;;;;;25.73;15.70;;;;;;;9.85;100.00;98311.13;5033914;28;20209;-68
2021/04/19 09:23:30;;;;;;;24.97;14.57;;;;;;;10.20;100.00;98310.31;5031047;28;20213;-68
2021/04/19 09:25:58;;;;;;;28.90;15.60;;;;;;;10.05;100.00;98310.34;5027887;28;20238;-68
2021/04/19 09:28:55;;;;;;;28.70;15.97;;;;;;;9.93;100.00;98311.00;5029830;28;20630;-71
2021/04/19 09:31:55;;;;;;;28.77;15.80;;;;;;;9.90;100.00;98312.22;5028818;28;20213;-68
2021/04/19 09:34:37;;;;;;;28.37;15.73;;;;;;;9.88;100.00;98313.41;5026952;28;20217;-68
2021/04/19 09:37:04;;;;;;;26.03;15.53;;;;;;;10.25;100.00;98311.38;5029205;28;20234;-68
2021/04/19 09:39:54;;;;;;;25.73;15.20;;;;;;;10.68;100.00;98311.31;5028064;28;20815;-67
2021/04/19 09:42:54;;;;;;;27.47;15.77;;;;;;;10.95;100.00;98312.13;5024777;28;20206;-68
2021/04/19 09:45:49;;;;;;;27.80;15.17;;;;;;;11.11;100.00;98311.00;5021716;28;20242;-67
2021/04/19 09:48:34;;;;;;;40.70;16.70;;;;;;;11.24;100.00;98306.56;5029670;28;20213;-67
2021/04/19 09:51:05;;;;;;;24.20;14.80;;;;;;;11.03;100.00;98305.81;5026176;28;20213;-68
2021/04/19 09:53:32;;;;;;;25.47;14.37;;;;;;;11.30;100.00;98311.09;5025576;28;20230;-69
2021/04/19 09:55:59;;;;;;;24.47;15.03;;;;;;;11.36;100.00;98304.16;5027505;28;20226;-69
2021/04/19 09:58:26;;;;;;;24.80;14.43;;;;;;;11.63;100.00;98303.25;5028563;28;20203;-68
2021/04/19 10:00:55;;;;;;;26.67;14.90;;;;;;;11.20;100.00;98305.28;5027383;28;20219;-68
2021/04/19 10:03:22;;;;;;;26.17;13.80;;;;;;;11.19;100.00;98306.31;5029564;28;20261;-69
2021/04/19 10:05:50;;;;;;;23.00;13.83;;;;;;;11.35;100.00;98300.63;5021823;28;20711;-69
2021/04/19 10:08:19;;;;;;;23.47;13.47;;;;;;;11.19;100.00;98311.66;5025547;28;20212;-70
2021/04/19 10:10:51;;;;;;;24.77;13.87;;;;;;;11.30;100.00;98312.94;5027519;28;20250;-67
2021/04/19 10:13:26;;;;;;;26.63;14.47;;;;;;;11.24;100.00;98309.22;5028753;28;20478;-67
2021/04/19 10:16:04;;;;;;;24.97;13.60;;;;;;;11.88;100.00;98298.19;5026670;28;20233;-70
2021/04/19 10:18:32;;;;;;;25.23;14.13;;;;;;;11.24;100.00;98309.22;5026285;28;20210;-70
2021/04/19 10:20:59;;;;;;;22.90;13.37;;;;;;;11.51;100.00;98307.50;5027201;28;20264;-70
2021/04/19 10:23:39;;;;;;;26.07;14.17;;;;;;;11.29;100.00;98305.94;5027756;28;20223;-70
2021/04/19 10:26:06;;;;;;;20.57;13.43;;;;;;;11.55;100.00;98303.38;5028491;28;20686;-71
2021/04/19 10:28:35;;;;;;;23.10;13.43;;;;;;;11.97;100.00;98299.66;5028905;28;20198;-70
2021/04/19 10:31:09;;;;;;;24.93;13.97;;;;;;;12.04;100.00;98298.63;5026183;28;20296;-70
2021/04/19 10:33:36;;;;;;;22.80;13.70;;;;;;;11.41;100.00;98304.38;5026186;28;20208;-71
2021/04/19 10:36:18;;;;;;;23.83;13.93;;;;;;;11.14;100.00;98302.56;5029701;28;20230;-67
2021/04/19 10:38:47;;;;;;;30.20;15.23;;;;;;;11.85;100.00;98302.09;5023078;28;20638;-68
2021/04/19 10:41:15;;;;;;;32.33;15.10;;;;;;;11.73;100.00;98295.69;5028727;28;20199;-69
2021/04/19 10:43:43;;;;;;;25.50;14.70;;;;;;;12.10;100.00;98295.16;5025552;28;20680;-70
2021/04/19 10:46:25;;;;;;;25.53;14.70;;;;;;;11.92;100.00;98297.59;5028247;28;20227;-70
2021/04/19 10:48:55;;;;;;;35.23;15.33;;;;;;;12.05;100.00;98294.13;5025029;28;20202;-71
2021/04/19 10:51:23;;;;;;;25.80;14.53;;;;;;;11.80;100.00;98293.03;5024429;28;20207;-70
2021/04/19 10:53:51;;;;;;;25.83;16.03;;;;;;;11.45;100.00;98294.91;5022203;28;20209;-79
2021/04/19 10:56:24;;;;;;;22.23;14.53;;;;;;;12.15;100.00;98294.56;5023951;28;20231;-71
2021/04/19 10:58:52;;;;;;;26.53;14.13;;;;;;;12.50;100.00;98286.13;5027117;28;20586;-73
2021/04/19 11:01:24;;;;;;;30.70;14.90;;;;;;;12.41;100.00;98287.34;5027881;28;20199;-71
2021/04/19 11:03:52;;;;;;;34.67;14.33;;;;;;;12.42;100.00;98293.53;5028983;28;20231;-70
2021/04/19 11:06:18;;;;;;;22.90;13.53;;;;;;;12.28;100.00;98284.69;5027733;28;20295;-73
2021/04/19 11:08:54;;;;;;;28.80;13.50;;;;;;;12.20;100.00;98290.22;5030358;28;20256;-74
2021/04/19 11:11:25;;;;;;;30.03;12.93;;;;;;;12.18;100.00;98281.59;5028182;28;20289;-70
2021/04/19 11:13:53;;;;;;;23.53;12.83;;;;;;;12.43;100.00;98279.97;5027841;28;20222;-71
2021/04/19 11:16:21;;;;;;;23.70;13.70;;;;;;;12.69;100.00;98280.75;5025733;28;20682;-70
2021/04/19 11:18:48;;;;;;;21.03;13.33;;;;;;;12.35;100.00;98285.50;5025961;28;20215;-70
2021/04/19 11:21:28;;;;;;;22.73;13.20;;;;;;;12.38;100.00;98278.91;5027753;28;20212;-69